createdAt,value
2018-06-21T00:00:57.755Z,20.38
2018-06-21T00:01:57.797Z,20.29
2018-06-21T00:02:57.832Z,20.28
2018-06-21T00:03:57.869Z,20.20
2018-06-21T00:04:57.906Z,20.10
2018-06-21T00:05:57.943Z,20.01
2018-06-21T00:06:57.981Z,19.96
2018-06-21T00:07:58.018Z,20.06
2018-06-21T00:08:58.056Z,20.05
2018-06-21T00:09:58.094Z,20.01
2018-06-21T00:10:58.131Z,19.99
2018-06-21T00:11:58.168Z,19.96
2018-06-21T00:12:58.205Z,19.96
2018-06-21T00:13:58.243Z,19.94
2018-06-21T00:14:58.282Z,20.03
2018-06-21T00:15:58.317Z,19.98
2018-06-21T00:16:58.356Z,19.95
2018-06-21T00:17:58.393Z,19.95
2018-06-21T00:18:58.430Z,19.98
2018-06-21T00:19:58.470Z,20.14
2018-06-21T00:20:58.504Z,20.16
2018-06-21T00:21:58.543Z,20.10
2018-06-21T00:22:58.578Z,20.08
2018-06-21T00:23:58.616Z,20.08
2018-06-21T00:24:58.653Z,20.08
2018-06-21T00:25:58.691Z,19.98
2018-06-21T00:26:58.728Z,20.01
2018-06-21T00:27:58.765Z,20.02
2018-06-21T00:28:58.802Z,20.01
2018-06-21T00:29:58.839Z,19.98
2018-06-21T00:30:58.877Z,20.13
2018-06-21T00:31:58.913Z,20.08
2018-06-21T00:32:58.951Z,20.10
2018-06-21T00:33:58.988Z,20.16
2018-06-21T00:34:59.026Z,20.16
2018-06-21T00:35:59.062Z,20.11
2018-06-21T00:36:59.102Z,20.17
2018-06-21T00:37:59.137Z,20.06
2018-06-21T00:38:59.174Z,20.10
2018-06-21T00:39:59.209Z,20.01
2018-06-21T00:40:59.248Z,20.01
2018-06-21T00:41:59.300Z,19.94
2018-06-21T00:42:59.326Z,20.03
2018-06-21T00:43:59.359Z,20.05
2018-06-21T00:44:59.399Z,20.11
2018-06-21T00:45:59.433Z,20.14
2018-06-21T00:46:59.470Z,20.17
2018-06-21T00:47:59.507Z,20.20
2018-06-21T00:48:59.545Z,20.24
2018-06-21T00:49:59.580Z,20.24
2018-06-21T00:50:59.619Z,20.32
2018-06-21T00:51:59.655Z,20.36
2018-06-21T00:52:59.695Z,20.33
2018-06-21T00:53:59.730Z,20.32
2018-06-21T00:54:59.766Z,20.18
2018-06-21T00:55:59.805Z,20.11
2018-06-21T00:56:59.840Z,20.08
2018-06-21T00:57:59.880Z,19.98
2018-06-21T00:58:59.915Z,19.86
2018-06-21T00:59:59.951Z,19.81
2018-06-21T01:00:59.989Z,19.74
2018-06-21T01:02:00.031Z,19.61
2018-06-21T01:03:00.124Z,19.63
2018-06-21T01:04:00.099Z,19.61
2018-06-21T01:05:00.137Z,19.62
2018-06-21T01:06:00.175Z,19.71
2018-06-21T01:07:00.210Z,19.74
2018-06-21T01:08:00.247Z,19.74
2018-06-21T01:09:00.283Z,19.74
2018-06-21T01:10:00.324Z,19.83
2018-06-21T01:11:00.358Z,19.81
2018-06-21T01:12:00.395Z,19.71
2018-06-21T01:13:00.434Z,19.77
2018-06-21T01:14:00.468Z,19.76
2018-06-21T01:15:00.506Z,19.65
2018-06-21T01:16:00.542Z,19.62
2018-06-21T01:17:00.579Z,19.63
2018-06-21T01:18:00.616Z,19.56
2018-06-21T01:19:00.653Z,19.55
2018-06-21T01:20:00.690Z,19.44
2018-06-21T01:21:00.725Z,19.47
2018-06-21T01:22:00.763Z,19.43
2018-06-21T01:23:00.800Z,19.41
2018-06-21T01:24:00.836Z,19.41
2018-06-21T01:25:00.874Z,19.55
2018-06-21T01:26:00.911Z,19.44
2018-06-21T01:27:00.951Z,19.59
2018-06-21T01:28:00.984Z,19.59
2018-06-21T01:29:01.021Z,19.68
2018-06-21T01:30:01.059Z,19.59
2018-06-21T01:31:01.095Z,19.56
2018-06-21T01:32:01.131Z,19.51
2018-06-21T01:33:01.168Z,19.44
2018-06-21T01:34:01.208Z,19.54
2018-06-21T01:35:01.241Z,19.41
2018-06-21T01:36:01.278Z,19.39
2018-06-21T01:37:01.315Z,19.48
2018-06-21T01:38:01.355Z,19.36
2018-06-21T01:39:01.392Z,19.33
2018-06-21T01:40:01.427Z,19.33
2018-06-21T01:41:01.463Z,19.33
2018-06-21T01:42:01.498Z,19.28
2018-06-21T01:43:01.536Z,19.37
2018-06-21T01:44:01.574Z,19.39
2018-06-21T01:45:01.609Z,19.47
2018-06-21T01:46:01.646Z,19.44
2018-06-21T01:47:01.686Z,19.44
2018-06-21T01:48:01.720Z,19.47
2018-06-21T01:49:01.755Z,19.51
2018-06-21T01:50:01.794Z,19.55
2018-06-21T01:51:01.832Z,19.54
2018-06-21T01:52:01.864Z,19.46
2018-06-21T01:53:01.901Z,19.46
2018-06-21T01:54:01.939Z,19.40
2018-06-21T01:55:01.975Z,19.43
2018-06-21T01:56:02.010Z,19.40
2018-06-21T01:57:02.056Z,19.46
2018-06-21T01:58:02.087Z,19.46
2018-06-21T01:59:02.122Z,19.44
2018-06-21T02:00:02.158Z,19.48
2018-06-21T02:01:02.194Z,19.39
2018-06-21T02:02:02.231Z,19.36
2018-06-21T02:03:02.272Z,19.26
2018-06-21T02:04:02.302Z,19.11
2018-06-21T02:05:02.340Z,19.06
2018-06-21T02:06:02.377Z,19.02
2018-06-21T02:07:02.413Z,19.02
2018-06-21T02:08:02.450Z,18.92
2018-06-21T02:09:02.489Z,18.98
2018-06-21T02:10:02.523Z,19.00
2018-06-21T02:11:02.559Z,19.02
2018-06-21T02:12:02.598Z,19.06
2018-06-21T02:13:02.631Z,19.00
2018-06-21T02:14:02.668Z,19.07
2018-06-21T02:15:02.709Z,19.02
2018-06-21T02:16:02.740Z,19.22
2018-06-21T02:17:02.791Z,19.22
2018-06-21T02:18:02.815Z,19.26
2018-06-21T02:19:02.854Z,19.25
2018-06-21T02:20:02.885Z,19.28
2018-06-21T02:21:02.941Z,19.29
2018-06-21T02:22:02.958Z,19.37
2018-06-21T02:23:02.996Z,19.41
2018-06-21T02:24:03.033Z,19.48
2018-06-21T02:25:03.067Z,19.41
2018-06-21T02:26:03.105Z,19.41
2018-06-21T02:27:03.142Z,19.26
2018-06-21T02:28:03.177Z,19.22
2018-06-21T02:29:03.213Z,19.19
2018-06-21T02:30:03.252Z,19.19
2018-06-21T02:31:03.287Z,19.18
2018-06-21T02:32:03.323Z,19.19
2018-06-21T02:33:03.360Z,19.14
2018-06-21T02:34:03.396Z,19.04
2018-06-21T02:35:03.433Z,19.00
2018-06-21T02:36:03.469Z,19.00
2018-06-21T02:37:03.505Z,19.00
2018-06-21T02:38:03.541Z,19.00
2018-06-21T02:39:03.583Z,19.07
2018-06-21T02:40:03.614Z,19.06
2018-06-21T02:41:03.650Z,19.08
2018-06-21T02:42:03.687Z,18.98
2018-06-21T02:43:03.724Z,19.00
2018-06-21T02:44:03.758Z,18.95
2018-06-21T02:45:03.796Z,18.95
2018-06-21T02:46:03.833Z,18.88
2018-06-21T02:47:03.868Z,19.06
2018-06-21T02:48:03.903Z,19.00
2018-06-21T02:49:03.941Z,18.98
2018-06-21T02:50:03.977Z,19.02
2018-06-21T02:51:04.013Z,19.04
2018-06-21T02:52:04.050Z,19.16
2018-06-21T02:53:04.085Z,19.16
2018-06-21T02:54:04.123Z,19.18
2018-06-21T02:55:04.158Z,19.08
2018-06-21T02:56:04.194Z,19.07
2018-06-21T02:57:04.232Z,18.94
2018-06-21T02:58:04.267Z,18.85
2018-06-21T02:59:05.860Z,18.75
2018-06-21T03:00:04.340Z,18.81
2018-06-21T03:01:04.375Z,18.76
2018-06-21T03:02:04.412Z,18.73
2018-06-21T03:03:04.449Z,18.72
2018-06-21T03:04:04.608Z,18.73
2018-06-21T03:05:04.544Z,18.82
2018-06-21T03:06:04.559Z,18.85
2018-06-21T03:07:04.595Z,18.91
2018-06-21T03:08:04.630Z,18.95
2018-06-21T03:09:04.666Z,18.90
2018-06-21T03:10:04.703Z,18.82
2018-06-21T03:11:04.739Z,18.84
2018-06-21T03:12:04.775Z,18.84
2018-06-21T03:13:04.815Z,18.75
2018-06-21T03:14:04.848Z,18.81
2018-06-21T03:15:04.884Z,18.87
2018-06-21T03:16:04.918Z,18.87
2018-06-21T03:17:04.955Z,18.87
2018-06-21T03:18:04.992Z,18.81
2018-06-21T03:19:05.028Z,18.80
2018-06-21T03:20:05.066Z,18.75
2018-06-21T03:21:05.100Z,18.73
2018-06-21T03:22:05.173Z,18.75
2018-06-21T03:23:05.173Z,18.72
2018-06-21T03:24:05.209Z,18.60
2018-06-21T03:25:05.246Z,18.54
2018-06-21T03:26:05.280Z,18.63
2018-06-21T03:27:05.318Z,18.50
2018-06-21T03:28:05.353Z,18.51
2018-06-21T03:29:05.389Z,18.42
2018-06-21T03:30:05.425Z,18.47
2018-06-21T03:31:05.462Z,18.44
2018-06-21T03:32:05.497Z,18.45
2018-06-21T03:33:05.535Z,18.37
2018-06-21T03:34:05.570Z,18.48
2018-06-21T03:35:05.655Z,18.47
2018-06-21T03:36:05.642Z,18.44
2018-06-21T03:37:05.687Z,18.42
2018-06-21T03:38:05.714Z,18.45
2018-06-21T03:39:05.751Z,18.63
2018-06-21T03:40:05.787Z,18.60
2018-06-21T03:41:05.822Z,18.62
2018-06-21T03:42:05.859Z,18.72
2018-06-21T03:43:05.895Z,18.73
2018-06-21T03:44:05.931Z,18.75
2018-06-21T03:45:05.967Z,18.80
2018-06-21T03:46:06.003Z,18.82
2018-06-21T03:47:06.039Z,18.78
2018-06-21T03:48:06.075Z,18.88
2018-06-21T03:49:06.111Z,18.87
2018-06-21T03:50:06.150Z,18.91
2018-06-21T03:51:06.184Z,19.00
2018-06-21T03:52:06.246Z,19.07
2018-06-21T03:53:06.257Z,19.00
2018-06-21T03:54:06.293Z,19.04
2018-06-21T03:55:06.333Z,19.04
2018-06-21T03:56:06.363Z,19.08
2018-06-21T03:57:06.400Z,19.08
2018-06-21T03:58:06.437Z,19.18
2018-06-21T03:59:06.474Z,19.18
2018-06-21T04:00:06.508Z,19.16
2018-06-21T04:01:06.545Z,19.10
2018-06-21T04:02:06.582Z,19.19
2018-06-21T04:03:06.656Z,19.23
2018-06-21T04:04:06.653Z,19.22
2018-06-21T04:05:06.690Z,19.26
2018-06-21T04:06:06.727Z,19.32
2018-06-21T04:07:06.766Z,19.29
2018-06-21T04:08:06.800Z,19.36
2018-06-21T04:09:06.835Z,19.37
2018-06-21T04:10:06.873Z,19.37
2018-06-21T04:11:06.909Z,19.47
2018-06-21T04:12:06.945Z,19.41
2018-06-21T04:13:06.981Z,19.55
2018-06-21T04:14:07.020Z,19.55
2018-06-21T04:15:07.054Z,19.62
2018-06-21T04:16:07.090Z,19.56
2018-06-21T04:17:07.126Z,19.69
2018-06-21T04:18:07.163Z,19.74
2018-06-21T04:19:07.201Z,19.69
2018-06-21T04:20:07.235Z,19.78
2018-06-21T04:21:07.272Z,19.78
2018-06-21T04:22:07.309Z,19.87
2018-06-21T04:23:07.345Z,19.87
2018-06-21T04:24:07.381Z,19.87
2018-06-21T04:25:07.418Z,19.95
2018-06-21T04:26:07.460Z,19.92
2018-06-21T04:27:07.496Z,19.94
2018-06-21T04:28:07.565Z,19.95
2018-06-21T04:29:07.565Z,20.02
2018-06-21T04:30:07.601Z,19.92
2018-06-21T04:31:07.639Z,19.87
2018-06-21T04:32:07.676Z,19.87
2018-06-21T04:33:07.712Z,19.94
2018-06-21T04:34:07.749Z,19.96
2018-06-21T04:35:07.785Z,20.01
2018-06-21T04:36:07.822Z,19.91
2018-06-21T04:37:07.858Z,19.77
2018-06-21T04:38:07.895Z,19.84
2018-06-21T04:39:07.933Z,19.84
2018-06-21T04:40:07.969Z,19.84
2018-06-21T04:41:08.007Z,19.92
2018-06-21T04:42:08.044Z,19.95
2018-06-21T04:43:08.081Z,19.96
2018-06-21T04:44:08.116Z,19.88
2018-06-21T04:45:08.154Z,19.96
2018-06-21T04:46:08.191Z,19.87
2018-06-21T04:47:08.228Z,19.91
2018-06-21T04:48:08.265Z,19.98
2018-06-21T04:49:08.305Z,19.98
2018-06-21T04:50:08.338Z,19.94
2018-06-21T04:51:08.376Z,19.95
2018-06-21T04:52:08.412Z,19.98
2018-06-21T04:53:08.449Z,19.99
2018-06-21T04:54:08.487Z,20.08
2018-06-21T04:55:08.527Z,20.11
2018-06-21T04:56:08.559Z,20.18
2018-06-21T04:57:08.599Z,20.20
2018-06-21T04:58:08.635Z,20.29
2018-06-21T04:59:08.673Z,20.33
2018-06-21T05:00:08.721Z,20.33
2018-06-21T05:01:08.747Z,20.48
2018-06-21T05:02:08.782Z,20.54
2018-06-21T05:03:08.821Z,20.57
2018-06-21T05:04:08.858Z,20.61
2018-06-21T05:05:08.894Z,20.66
2018-06-21T05:06:08.940Z,20.77
2018-06-21T05:07:08.971Z,20.84
2018-06-21T05:08:09.007Z,20.76
2018-06-21T05:09:09.044Z,20.80
2018-06-21T05:10:09.081Z,20.89
2018-06-21T05:11:09.120Z,20.88
2018-06-21T05:12:09.156Z,20.89
2018-06-21T05:13:09.194Z,20.92
2018-06-21T05:14:09.232Z,20.98
2018-06-21T05:15:09.272Z,20.94
2018-06-21T05:16:09.309Z,20.98
2018-06-21T05:17:09.343Z,20.87
2018-06-21T05:18:09.436Z,20.84
2018-06-21T05:19:09.419Z,20.95
2018-06-21T05:20:09.456Z,20.99
2018-06-21T05:21:09.494Z,20.95
2018-06-21T05:22:09.532Z,20.97
2018-06-21T05:23:09.572Z,21.10
2018-06-21T05:24:09.615Z,21.16
2018-06-21T05:25:09.705Z,21.27
2018-06-21T05:26:09.682Z,21.24
2018-06-21T05:27:09.727Z,21.35
2018-06-21T05:28:09.770Z,21.50
2018-06-21T05:29:09.796Z,21.54
2018-06-21T05:30:09.834Z,21.53
2018-06-21T05:31:09.870Z,21.56
2018-06-21T05:32:09.966Z,21.65
2018-06-21T05:33:09.946Z,21.68
2018-06-21T05:34:09.984Z,21.83
2018-06-21T05:35:10.021Z,21.80
2018-06-21T05:36:10.089Z,21.92
2018-06-21T05:37:10.097Z,21.94
2018-06-21T05:38:10.134Z,22.09
2018-06-21T05:39:10.172Z,22.10
2018-06-21T05:40:10.209Z,22.15
2018-06-21T05:41:10.250Z,22.21
2018-06-21T05:42:10.285Z,22.18
2018-06-21T05:43:10.324Z,22.33
2018-06-21T05:44:10.361Z,22.46
2018-06-21T05:45:10.400Z,22.62
2018-06-21T05:46:10.438Z,22.62
2018-06-21T05:47:10.476Z,22.72
2018-06-21T05:48:10.513Z,22.64
2018-06-21T05:49:10.551Z,22.70
2018-06-21T05:50:10.640Z,22.80
2018-06-21T05:51:10.628Z,22.86
2018-06-21T05:52:10.667Z,22.83
2018-06-21T05:53:10.704Z,22.83
2018-06-21T05:54:10.742Z,22.82
2018-06-21T05:55:10.782Z,22.83
2018-06-21T05:56:10.820Z,22.85
2018-06-21T05:57:10.858Z,22.90
2018-06-21T05:58:10.895Z,22.95
2018-06-21T05:59:10.935Z,23.13
2018-06-21T06:00:10.973Z,23.13
2018-06-21T06:01:11.011Z,23.10
2018-06-21T06:02:11.051Z,23.15
2018-06-21T06:03:11.090Z,23.19
2018-06-21T06:04:11.127Z,23.27
2018-06-21T06:05:11.166Z,23.32
2018-06-21T06:06:11.205Z,23.28
2018-06-21T06:07:11.244Z,22.94
2018-06-21T06:08:11.291Z,23.04
2018-06-21T06:09:11.329Z,23.04
2018-06-21T06:10:11.426Z,23.04
2018-06-21T06:11:11.398Z,23.00
2018-06-21T06:12:11.437Z,23.16
2018-06-21T06:13:11.476Z,23.19
2018-06-21T06:14:11.533Z,23.27
2018-06-21T06:15:11.558Z,23.28
2018-06-21T06:16:11.592Z,23.27
2018-06-21T06:17:11.633Z,23.25
2018-06-21T06:18:11.671Z,23.42
2018-06-21T06:19:11.709Z,23.39
2018-06-21T06:20:11.748Z,23.46
2018-06-21T06:21:11.787Z,23.39
2018-06-21T06:22:11.826Z,23.54
2018-06-21T06:23:11.865Z,23.69
2018-06-21T06:24:11.924Z,23.70
2018-06-21T06:25:11.944Z,23.72
2018-06-21T06:26:11.984Z,23.69
2018-06-21T06:27:12.022Z,23.73
2018-06-21T06:28:12.061Z,23.84
2018-06-21T06:29:12.100Z,23.87
2018-06-21T06:30:12.139Z,23.90
2018-06-21T06:31:12.178Z,23.97
2018-06-21T06:32:12.217Z,24.12
2018-06-21T06:33:12.256Z,24.12
2018-06-21T06:34:12.295Z,24.13
2018-06-21T06:35:12.335Z,24.24
2018-06-21T06:36:12.380Z,24.20
2018-06-21T06:37:12.414Z,24.34
2018-06-21T06:38:12.451Z,24.28
2018-06-21T06:39:12.493Z,24.37
2018-06-21T06:40:12.531Z,24.40
2018-06-21T06:41:12.571Z,24.47
2018-06-21T06:42:12.609Z,24.46
2018-06-21T06:43:12.650Z,24.40
2018-06-21T06:44:12.692Z,24.37
2018-06-21T06:45:12.728Z,24.50
2018-06-21T06:46:12.822Z,24.53
2018-06-21T06:47:12.807Z,24.55
2018-06-21T06:48:12.847Z,24.62
2018-06-21T06:49:12.885Z,24.53
2018-06-21T06:50:12.925Z,24.58
2018-06-21T06:51:12.970Z,24.65
2018-06-21T06:52:13.004Z,24.65
2018-06-21T06:53:13.044Z,24.68
2018-06-21T06:54:13.091Z,24.77
2018-06-21T06:55:13.124Z,24.67
2018-06-21T06:56:13.163Z,24.76
2018-06-21T06:57:13.203Z,24.83
2018-06-21T06:58:13.242Z,24.87
2018-06-21T06:59:13.284Z,24.96
2018-06-21T07:00:13.323Z,25.05
2018-06-21T07:01:13.362Z,25.08
2018-06-21T07:02:13.403Z,25.09
2018-06-21T07:03:13.442Z,25.30
2018-06-21T07:04:13.481Z,25.33
2018-06-21T07:05:13.522Z,25.40
2018-06-21T07:06:13.561Z,25.42
2018-06-21T07:07:13.607Z,25.42
2018-06-21T07:08:13.658Z,25.50
2018-06-21T07:09:13.684Z,25.47
2018-06-21T07:10:13.721Z,25.57
2018-06-21T07:11:13.761Z,25.52
2018-06-21T07:12:13.801Z,25.52
2018-06-21T07:13:13.841Z,25.57
2018-06-21T07:14:13.925Z,25.69
2018-06-21T07:15:13.920Z,25.58
2018-06-21T07:16:13.960Z,25.61
2018-06-21T07:17:14.001Z,25.51
2018-06-21T07:18:14.040Z,25.51
2018-06-21T07:19:14.082Z,25.61
2018-06-21T07:20:14.120Z,25.67
2018-06-21T07:21:14.161Z,25.51
2018-06-21T07:22:14.202Z,25.36
2018-06-21T07:23:14.240Z,25.23
2018-06-21T07:24:14.282Z,25.06
2018-06-21T07:25:14.321Z,25.20
2018-06-21T07:26:14.362Z,25.20
2018-06-21T07:27:14.505Z,25.42
2018-06-21T07:28:14.443Z,25.52
2018-06-21T07:29:14.482Z,25.50
2018-06-21T07:31:02.093Z,25.72
2018-06-21T07:32:02.131Z,25.72
2018-06-21T07:33:02.169Z,25.72
2018-06-21T07:34:02.209Z,25.76
2018-06-21T07:35:02.249Z,25.91
2018-06-21T07:36:02.291Z,26.05
2018-06-21T07:37:02.331Z,26.12
2018-06-21T07:38:02.371Z,26.29
2018-06-21T07:39:02.526Z,26.30
2018-06-21T07:40:02.451Z,26.35
2018-06-21T07:41:02.491Z,26.13
2018-06-21T07:42:02.533Z,25.95
2018-06-21T07:43:02.574Z,26.05
2018-06-21T07:44:02.612Z,25.98
2018-06-21T07:45:02.658Z,26.09
2018-06-21T07:46:02.695Z,26.01
2018-06-21T07:47:02.736Z,26.12
2018-06-21T07:48:02.778Z,26.28
2018-06-21T07:49:02.819Z,26.25
2018-06-21T07:50:02.860Z,26.33
2018-06-21T07:51:02.899Z,26.30
2018-06-21T07:52:02.938Z,26.25
2018-06-21T07:53:02.977Z,26.39
2018-06-21T07:54:03.019Z,26.50
2018-06-21T07:55:03.060Z,26.60
2018-06-21T07:56:03.100Z,26.65
2018-06-21T07:57:03.141Z,26.82
2018-06-21T07:58:03.182Z,26.48
2018-06-21T07:59:03.289Z,26.62
2018-06-21T08:00:03.264Z,26.63
2018-06-21T08:01:03.305Z,26.60
2018-06-21T08:02:03.346Z,26.85
2018-06-21T08:03:03.390Z,26.87
2018-06-21T08:04:03.427Z,27.13
2018-06-21T08:05:03.488Z,27.31
2018-06-21T08:06:03.509Z,27.34
2018-06-21T08:07:03.550Z,27.32
2018-06-21T08:08:03.590Z,27.55
2018-06-21T08:09:03.632Z,27.54
2018-06-21T08:10:03.673Z,27.47
2018-06-21T08:11:03.715Z,27.69
2018-06-21T08:12:03.756Z,27.39
2018-06-21T08:13:03.797Z,27.44
2018-06-21T08:14:03.840Z,27.28
2018-06-21T08:15:03.882Z,27.36
2018-06-21T08:16:03.921Z,27.49
2018-06-21T08:17:03.961Z,27.67
2018-06-21T08:18:04.004Z,27.97
2018-06-21T08:19:04.068Z,28.21
2018-06-21T08:20:04.111Z,27.90
2018-06-21T08:21:04.145Z,27.85
2018-06-21T08:22:04.190Z,27.62
2018-06-21T08:23:04.234Z,27.87
2018-06-21T08:24:04.271Z,28.12
2018-06-21T08:25:04.315Z,28.25
2018-06-21T08:26:04.356Z,28.25
2018-06-21T08:27:04.416Z,28.46
2018-06-21T08:28:04.441Z,28.58
2018-06-21T08:29:04.484Z,28.58
2018-06-21T08:30:04.506Z,27.97
2018-06-21T08:31:04.548Z,28.14
2018-06-21T08:32:04.591Z,28.06
2018-06-21T08:33:04.681Z,27.67
2018-06-21T08:34:04.674Z,27.72
2018-06-21T08:35:04.717Z,27.51
2018-06-21T08:36:04.758Z,27.55
2018-06-21T08:37:04.800Z,27.75
2018-06-21T08:38:04.845Z,27.90
2018-06-21T08:39:05.102Z,28.18
2018-06-21T08:40:05.253Z,27.72
2018-06-21T08:41:04.969Z,27.29
2018-06-21T08:42:05.062Z,27.51
2018-06-21T08:43:05.057Z,27.24
2018-06-21T08:44:05.154Z,27.41
2018-06-21T08:45:05.139Z,27.55
2018-06-21T08:46:05.249Z,27.66
2018-06-21T08:47:05.223Z,27.75
2018-06-21T08:48:05.265Z,27.69
2018-06-21T08:49:05.307Z,27.82
2018-06-21T08:50:05.350Z,28.02
2018-06-21T08:51:05.392Z,27.94
2018-06-21T08:52:05.458Z,28.00
2018-06-21T08:53:05.475Z,28.22
2018-06-21T08:54:05.518Z,28.29
2018-06-21T08:55:05.568Z,28.48
2018-06-21T08:56:05.607Z,28.59
2018-06-21T08:57:05.642Z,28.49
2018-06-21T08:58:05.686Z,28.51
2018-06-21T08:59:05.728Z,28.30
2018-06-21T09:00:05.776Z,28.30
2018-06-21T09:01:05.812Z,28.58
2018-06-21T09:02:05.856Z,28.56
2018-06-21T09:03:05.900Z,28.37
2018-06-21T09:04:05.942Z,28.18
2018-06-21T09:05:05.983Z,28.30
2018-06-21T09:06:06.026Z,28.43
2018-06-21T09:07:06.069Z,28.41
2018-06-21T09:08:06.111Z,28.59
2018-06-21T09:09:06.152Z,28.98
2018-06-21T09:10:06.197Z,29.16
2018-06-21T09:11:06.238Z,29.34
2018-06-21T09:12:06.281Z,29.14
2018-06-21T09:13:06.323Z,29.04
2018-06-21T09:14:06.367Z,28.81
2018-06-21T09:15:06.409Z,28.93
2018-06-21T09:16:06.452Z,29.02
2018-06-21T09:17:06.495Z,29.15
2018-06-21T09:18:06.538Z,29.09
2018-06-21T09:19:06.579Z,29.23
2018-06-21T09:20:06.624Z,29.19
2018-06-21T09:21:06.693Z,29.04
2018-06-21T09:22:06.710Z,29.52
2018-06-21T09:23:06.752Z,29.71
2018-06-21T09:24:06.794Z,29.48
2018-06-21T09:25:06.850Z,29.51
2018-06-21T09:26:06.889Z,29.42
2018-06-21T09:27:06.925Z,29.42
2018-06-21T09:28:06.986Z,29.64
2018-06-21T09:29:07.090Z,29.46
2018-06-21T09:30:07.054Z,28.96
2018-06-21T09:32:07.142Z,29.42
2018-06-21T09:33:07.187Z,29.31
2018-06-21T09:34:07.227Z,29.85
2018-06-21T09:35:07.278Z,30.07
2018-06-21T09:36:07.316Z,30.46
2018-06-21T09:37:07.359Z,30.69
2018-06-21T09:38:07.421Z,30.89
2018-06-21T09:39:07.447Z,31.12
2018-06-21T09:40:07.491Z,31.09
2018-06-21T09:41:07.534Z,30.97
2018-06-21T09:42:07.580Z,30.88
2018-06-21T09:43:07.624Z,30.57
2018-06-21T09:44:07.666Z,30.31
2018-06-21T09:45:07.709Z,30.31
2018-06-21T09:46:07.754Z,30.20
2018-06-21T09:47:07.818Z,30.46
2018-06-21T09:48:07.843Z,29.86
2018-06-21T09:49:07.886Z,29.57
2018-06-21T09:50:07.930Z,29.65
2018-06-21T09:51:07.974Z,29.57
2018-06-21T09:52:08.023Z,29.39
2018-06-21T09:53:08.061Z,29.45
2018-06-21T09:54:08.105Z,29.65
2018-06-21T09:55:08.150Z,29.63
2018-06-21T09:56:08.196Z,29.63
2018-06-21T09:57:08.238Z,29.42
2018-06-21T09:58:08.281Z,29.37
2018-06-21T09:59:08.327Z,29.79
2018-06-21T10:00:08.371Z,29.90
2018-06-21T10:01:08.414Z,29.74
2018-06-21T10:02:08.460Z,29.92
2018-06-21T10:03:08.504Z,29.63
2018-06-21T10:04:08.547Z,29.68
2018-06-21T10:05:08.590Z,30.00
2018-06-21T10:06:08.635Z,30.47
2018-06-21T10:07:08.703Z,30.89
2018-06-21T10:08:08.723Z,30.76
2018-06-21T10:09:08.766Z,31.23
2018-06-21T10:10:08.811Z,31.13
2018-06-21T10:11:08.855Z,31.25
2018-06-21T10:12:08.900Z,31.31
2018-06-21T10:13:08.965Z,31.65
2018-06-21T10:14:08.991Z,31.80
2018-06-21T10:15:09.034Z,31.75
2018-06-21T10:16:09.081Z,32.28
2018-06-21T10:17:09.124Z,32.41
2018-06-21T10:18:09.170Z,32.56
2018-06-21T10:19:09.214Z,32.37
2018-06-21T10:20:09.260Z,32.28
2018-06-21T10:21:09.303Z,32.48
2018-06-21T10:22:09.348Z,32.45
2018-06-21T10:23:09.450Z,32.28
2018-06-21T10:24:09.441Z,32.55
2018-06-21T10:25:09.489Z,32.57
2018-06-21T10:26:09.530Z,31.96
2018-06-21T10:27:09.577Z,31.95
2018-06-21T10:28:09.622Z,31.75
2018-06-21T10:29:09.668Z,31.43
2018-06-21T10:30:09.713Z,31.58
2018-06-21T10:31:09.759Z,31.20
2018-06-21T10:32:09.806Z,31.21
2018-06-21T10:33:09.851Z,31.32
2018-06-21T10:34:09.897Z,31.06
2018-06-21T10:35:09.995Z,31.48
2018-06-21T10:36:09.987Z,31.46
2018-06-21T10:37:10.033Z,31.44
2018-06-21T10:38:10.080Z,31.38
2018-06-21T10:39:10.125Z,31.48
2018-06-21T10:40:10.170Z,31.28
2018-06-21T10:41:10.216Z,30.97
2018-06-21T10:42:10.264Z,31.06
2018-06-21T10:43:10.308Z,31.23
2018-06-21T10:44:10.354Z,31.99
2018-06-21T10:45:10.399Z,32.70
2018-06-21T10:46:10.445Z,33.19
2018-06-21T10:47:10.491Z,32.93
2018-06-21T10:48:10.537Z,32.41
2018-06-21T10:49:10.638Z,32.99
2018-06-21T10:50:10.631Z,33.09
2018-06-21T10:51:10.678Z,33.15
2018-06-21T10:52:10.726Z,34.02
2018-06-21T10:53:10.774Z,34.42
2018-06-21T10:54:10.819Z,34.65
2018-06-21T10:55:10.885Z,35.36
2018-06-21T10:56:10.935Z,35.28
2018-06-21T10:57:10.978Z,35.31
2018-06-21T10:58:13.635Z,35.93
2018-06-21T10:59:13.687Z,36.23
2018-06-21T11:00:11.112Z,36.16
2018-06-21T11:01:11.160Z,36.13
2018-06-21T11:02:11.208Z,36.29
2018-06-21T11:03:11.291Z,36.98
2018-06-21T11:04:11.310Z,37.50
2018-06-21T11:05:11.359Z,36.72
2018-06-21T11:06:11.409Z,35.53
2018-06-21T11:07:11.459Z,34.84
2018-06-21T11:08:11.510Z,34.25
2018-06-21T11:09:11.560Z,34.16
2018-06-21T11:10:11.611Z,34.06
2018-06-21T11:11:11.661Z,33.34
2018-06-21T11:12:11.711Z,32.32
2018-06-21T11:13:11.761Z,31.66
2018-06-21T11:14:11.812Z,32.01
2018-06-21T11:15:11.865Z,32.32
2018-06-21T11:16:11.913Z,32.10
2018-06-21T11:17:11.961Z,32.47
2018-06-21T11:18:12.010Z,32.59
2018-06-21T11:19:12.061Z,33.09
2018-06-21T11:20:12.111Z,33.63
2018-06-21T11:21:12.158Z,34.27
2018-06-21T11:22:12.206Z,34.06
2018-06-21T11:23:12.257Z,34.22
2018-06-21T11:24:12.380Z,34.28
2018-06-21T11:25:12.354Z,34.22
2018-06-21T11:26:12.404Z,33.60
2018-06-21T11:27:12.454Z,33.21
2018-06-21T11:28:12.503Z,33.16
2018-06-21T11:29:12.552Z,33.35
2018-06-21T11:30:12.617Z,33.90
2018-06-21T11:31:12.650Z,34.05
2018-06-21T11:32:12.701Z,34.52
2018-06-21T11:33:12.749Z,33.76
2018-06-21T11:34:12.799Z,33.47
2018-06-21T11:35:12.848Z,34.08
2018-06-21T11:36:12.897Z,34.06
2018-06-21T11:37:12.947Z,34.99
2018-06-21T11:38:13.003Z,35.14
2018-06-21T11:39:13.048Z,34.72
2018-06-21T11:40:13.139Z,34.70
2018-06-21T11:41:13.147Z,34.75
2018-06-21T11:42:13.199Z,35.65
2018-06-21T11:43:13.256Z,36.50
2018-06-21T11:44:13.300Z,36.46
2018-06-21T11:45:13.351Z,35.99
2018-06-21T11:46:13.422Z,35.85
2018-06-21T11:47:13.457Z,35.53
2018-06-21T11:48:13.541Z,35.97
2018-06-21T11:49:13.555Z,36.01
2018-06-21T11:50:13.606Z,36.56
2018-06-21T11:51:13.663Z,35.44
2018-06-21T11:52:13.736Z,34.02
2018-06-21T11:53:13.760Z,34.44
2018-06-21T11:54:13.812Z,33.38
2018-06-21T11:55:13.863Z,32.96
2018-06-21T11:56:13.914Z,32.99
2018-06-21T11:57:13.971Z,33.06
2018-06-21T11:58:14.014Z,34.00
2018-06-21T11:59:14.066Z,34.81
2018-06-21T12:00:14.117Z,35.89
2018-06-21T12:01:14.169Z,36.22
2018-06-21T12:02:14.219Z,35.89
2018-06-21T12:03:14.278Z,35.71
2018-06-21T12:04:14.320Z,34.88
2018-06-21T12:05:14.372Z,33.98
2018-06-21T12:06:14.421Z,33.18
2018-06-21T12:07:14.471Z,32.33
2018-06-21T12:08:14.522Z,32.07
2018-06-21T12:09:14.573Z,31.73
2018-06-21T12:10:14.623Z,31.93
2018-06-21T12:11:14.672Z,31.57
2018-06-21T12:12:14.727Z,31.43
2018-06-21T12:13:14.772Z,31.14
2018-06-21T12:14:14.823Z,31.20
2018-06-21T12:15:14.871Z,32.13
2018-06-21T12:16:14.920Z,33.81
2018-06-21T12:17:14.967Z,35.07
2018-06-21T12:18:15.016Z,35.85
2018-06-21T12:19:15.065Z,36.50
2018-06-21T12:20:15.162Z,37.66
2018-06-21T12:21:15.161Z,37.67
2018-06-21T12:22:15.213Z,37.85
2018-06-21T12:23:15.263Z,37.79
2018-06-21T12:24:15.316Z,37.97
2018-06-21T12:25:15.363Z,37.96
2018-06-21T12:26:15.464Z,38.37
2018-06-21T12:27:15.465Z,39.01
2018-06-21T12:28:15.518Z,38.25
2018-06-21T12:29:15.568Z,38.96
2018-06-21T12:30:15.620Z,39.30
2018-06-21T12:31:15.676Z,39.52
2018-06-21T12:32:15.726Z,39.52
2018-06-21T12:33:15.778Z,38.76
2018-06-21T12:34:15.831Z,39.57
2018-06-21T12:35:15.884Z,38.23
2018-06-21T12:36:15.939Z,38.16
2018-06-21T12:37:15.990Z,38.06
2018-06-21T12:38:16.046Z,38.03
2018-06-21T12:39:16.102Z,38.23
2018-06-21T12:40:16.155Z,37.81
2018-06-21T12:41:16.209Z,38.50
2018-06-21T12:42:16.264Z,38.30
2018-06-21T12:43:16.318Z,38.28
2018-06-21T12:44:16.373Z,38.31
2018-06-21T12:46:16.484Z,38.46
2018-06-21T12:47:16.539Z,37.47
2018-06-21T12:48:16.594Z,36.83
2018-06-21T12:49:16.647Z,36.25
2018-06-21T12:50:16.701Z,35.00
2018-06-21T12:51:16.757Z,35.36
2018-06-21T12:52:16.811Z,34.25
2018-06-21T12:53:16.863Z,33.28
2018-06-21T12:54:16.919Z,32.43
2018-06-21T12:55:16.970Z,33.41
2018-06-21T12:56:17.028Z,34.08